Time;durP1;ratioP1;P1;durP2;ratioP2;P2;SDS_P1;SDS_P2;PMS_P1;PMS_P2;Temp;Humidity;BMP_temperature;BMP_pressure;BME280_temperature;BME280_humidity;BME280_pressure;Samples;Min_cycle;Max_cycle;Signal;HPM_P1;HPM_P2
2023/04/08 00:01:18;;;;;;;;;;;;;;;7.28;56.47;98113.56;5110151;27;19928;-64
2023/04/08 00:03:46;;;;;;;;;;;;;;;7.39;56.30;98111.59;5106486;28;19923;-59
2023/04/08 00:06:15;;;;;;;;;;;;;;;7.32;56.70;98119.22;5110713;28;19932;-61
2023/04/08 00:08:44;;;;;;;;;;;;;;;7.19;56.53;98109.91;5106337;28;19931;-59
2023/04/08 00:11:11;;;;;;;;;;;;;;;7.24;55.94;98112.53;5104544;28;20305;-59
2023/04/08 00:13:40;;;;;;;;;;;;;;;7.24;52.49;98112.53;5106234;28;19992;-59
2023/04/08 00:16:07;;;;;;;;;;;;;;;7.17;52.79;98106.66;5098524;28;20372;-59
2023/04/08 00:18:36;;;;;;;;;;;;;;;7.13;53.29;98116.41;5092423;28;19931;-58
2023/04/08 00:21:04;;;;;;;;;;;;;;;7.14;53.07;98112.66;5105583;28;19927;-59
2023/04/08 00:23:32;;;;;;;;;;;;;;;7.05;53.09;98115.13;5096723;28;20033;-60
2023/04/08 00:26:01;;;;;;;;;;;;;;;7.01;53.16;98107.88;5107807;28;19962;-59
2023/04/08 00:28:29;;;;;;;;;;;;;;;7.22;52.36;98113.91;5111382;28;20364;-59
2023/04/08 00:30:59;;;;;;;;;;;;;;;7.08;52.69;98105.66;5080231;28;20007;-59
2023/04/08 00:33:27;;;;;;;;;;;;;;;7.26;52.00;98115.75;5091303;28;20353;-58
2023/04/08 00:35:55;;;;;;;;;;;;;;;7.23;51.75;98110.91;5087442;28;19931;-59
2023/04/08 00:38:23;;;;;;;;;;;;;;;7.19;51.44;98112.59;5093549;28;19924;-61
2023/04/08 00:40:50;;;;;;;;;;;;;;;7.09;50.69;98115.38;5095014;28;19931;-59
2023/04/08 00:43:20;;;;;;;;;;;;;;;7.17;50.66;98112.06;5093378;28;20693;-59
2023/04/08 00:45:48;;;;;;;;;;;;;;;7.06;50.88;98116.75;5103132;28;19924;-60
2023/04/08 00:48:16;;;;;;;;;;;;;;;7.06;50.85;98115.94;5093859;28;19969;-61
2023/04/08 00:50:46;;;;;;;;;;;;;;;6.98;51.19;98113.88;5112379;28;19924;-59
2023/04/08 00:53:14;;;;;;;;;;;;;;;7.01;51.75;98115.97;5088124;28;19939;-59
2023/04/08 00:55:42;;;;;;;;;;;;;;;6.87;51.58;98112.31;5111050;28;19931;-58
2023/04/08 00:58:10;;;;;;;;;;;;;;;6.91;51.85;98113.38;5101437;27;20473;-59
2023/04/08 01:00:41;;;;;;;;;;;;;;;6.85;51.94;98119.91;5095097;28;19935;-58
2023/04/08 01:03:12;;;;;;;;;;;;;;;6.79;52.15;98121.81;5100211;27;19935;-58
2023/04/08 01:05:43;;;;;;;;;;;;;;;6.85;52.33;98128.00;5109750;28;19957;-59
2023/04/08 01:08:10;;;;;;;;;;;;;;;6.63;52.96;98129.22;5094127;28;19928;-61
2023/04/08 01:10:40;;;;;;;;;;;;;;;6.81;52.60;98130.44;5090387;28;20356;-59
2023/04/08 01:13:09;;;;;;;;;;;;;;;6.83;52.51;98134.50;5096315;27;19935;-59
2023/04/08 01:15:37;;;;;;;;;;;;;;;6.82;52.98;98134.78;5080047;28;19931;-59
2023/04/08 01:18:07;;;;;;;;;;;;;;;6.78;52.92;98136.44;5108735;28;20281;-58
2023/04/08 01:20:35;;;;;;;;;;;;;;;6.73;53.57;98134.56;5095070;28;20396;-58
2023/04/08 01:23:06;;;;;;;;;;;;;;;6.69;53.43;98138.09;5093251;28;19931;-58
2023/04/08 01:25:35;;;;;;;;;;;;;;;6.64;54.33;98136.22;5090213;28;20396;-59
2023/04/08 01:28:07;;;;;;;;;;;;;;;6.73;54.30;98139.97;5089755;28;20043;-64
2023/04/08 01:30:35;;;;;;;;;;;;;;;6.65;54.10;98139.72;5090589;28;19931;-58
2023/04/08 01:33:03;;;;;;;;;;;;;;;6.56;54.47;98136.84;5091835;28;19924;-65
2023/04/08 01:35:31;;;;;;;;;;;;;;;6.52;54.74;98141.19;5109468;28;19932;-59
2023/04/08 01:37:59;;;;;;;;;;;;;;;6.56;54.82;98139.53;5094249;28;19924;-63
2023/04/08 01:40:27;;;;;;;;;;;;;;;6.63;54.65;98134.63;5087183;28;19923;-60
2023/04/08 01:42:56;;;;;;;;;;;;;;;6.60;55.00;98135.16;5086432;28;20361;-58
2023/04/08 01:45:25;;;;;;;;;;;;;;;6.61;55.26;98136.81;5086825;28;20760;-58
2023/04/08 01:47:53;;;;;;;;;;;;;;;6.55;55.21;98141.44;5094326;28;19924;-59
2023/04/08 01:50:21;;;;;;;;;;;;;;;6.60;55.67;98128.97;5112152;28;19940;-59
2023/04/08 01:52:49;;;;;;;;;;;;;;;6.51;56.34;98131.47;5093031;28;19924;-62
2023/04/08 01:55:17;;;;;;;;;;;;;;;6.69;56.36;98122.69;5108888;28;19984;-58
2023/04/08 01:57:47;;;;;;;;;;;;;;;6.50;56.59;98133.38;5093547;28;19980;-62
2023/04/08 02:00:17;;;;;;;;;;;;;;;6.63;56.85;98129.22;5086879;28;19928;-58
2023/04/08 02:02:52;;;;;;;;;;;;;;;6.56;57.02;98131.44;5098052;28;19930;-58
2023/04/08 02:05:21;;;;;;;;;;;;;;;6.53;57.42;98135.50;5093925;28;19933;-60
2023/04/08 02:07:51;;;;;;;;;;;;;;;6.52;58.04;98133.06;5105776;28;19963;-59
2023/04/08 02:10:20;;;;;;;;;;;;;;;6.41;58.39;98126.13;5084035;28;20014;-58
2023/04/08 02:12:48;;;;;;;;;;;;;;;6.41;58.51;98134.22;5091893;28;20407;-65
2023/04/08 02:15:15;;;;;;;;;;;;;;;6.36;58.65;98134.25;5099199;28;19939;-59
2023/04/08 02:17:44;;;;;;;;;;;;;;;6.38;59.01;98134.78;5096800;28;20376;-62
2023/04/08 02:20:15;;;;;;;;;;;;;;;6.40;58.66;98141.53;5093917;28;19938;-58
2023/04/08 02:22:43;;;;;;;;;;;;;;;6.36;59.23;98143.16;5104567;28;19963;-58
2023/04/08 02:25:13;;;;;;;;;;;;;;;6.40;59.22;98146.91;5082148;28;20485;-58
2023/04/08 02:27:41;;;;;;;;;;;;;;;6.26;59.64;98144.00;5105626;28;19932;-59
2023/04/08 02:30:10;;;;;;;;;;;;;;;6.33;59.84;98148.28;5105150;28;19953;-58
2023/04/08 02:32:38;;;;;;;;;;;;;;;6.28;60.00;98144.56;5089942;28;20373;-59
2023/04/08 02:35:06;;;;;;;;;;;;;;;6.17;60.19;98142.97;5108727;28;19976;-58
2023/04/08 02:37:35;;;;;;;;;;;;;;;6.14;60.60;98148.94;5092960;28;19924;-60
2023/04/08 02:40:03;;;;;;;;;;;;;;;6.11;60.65;98148.66;5112036;28;19947;-62
2023/04/08 02:42:33;;;;;;;;;;;;;;;6.13;60.35;98147.31;5091762;28;19923;-58
2023/04/08 02:45:01;;;;;;;;;;;;;;;6.11;60.59;98154.06;5090113;28;19923;-58
2023/04/08 02:47:29;;;;;;;;;;;;;;;6.07;61.03;98153.78;5103364;28;19990;-63
2023/04/08 02:49:57;;;;;;;;;;;;;;;6.03;60.90;98152.75;5109585;28;19927;-59
2023/04/08 02:52:25;;;;;;;;;;;;;;;6.05;60.87;98155.97;5092952;28;19928;-59
2023/04/08 02:54:54;;;;;;;;;;;;;;;6.03;61.06;98160.84;5108234;28;19931;-64
2023/04/08 02:57:21;;;;;;;;;;;;;;;5.99;60.82;98148.97;5093617;28;19934;-59
2023/04/08 02:59:49;;;;;;;;;;;;;;;5.99;61.27;98157.88;5110861;28;19939;-59
2023/04/08 03:02:17;;;;;;;;;;;;;;;5.88;61.93;98155.47;5097535;28;19969;-58
2023/04/08 03:04:45;;;;;;;;;;;;;;;5.99;61.40;98162.47;5107011;28;19924;-60
2023/04/08 03:07:13;;;;;;;;;;;;;;;6.02;61.60;98162.72;5092826;28;20019;-58
2023/04/08 03:09:43;;;;;;;;;;;;;;;5.93;61.55;98158.19;5118671;28;19924;-59
2023/04/08 03:12:12;;;;;;;;;;;;;;;6.01;61.46;98161.09;5108381;28;20300;-59
2023/04/08 03:14:40;;;;;;;;;;;;;;;6.01;61.23;98158.41;5112171;28;20369;-61
2023/04/08 03:17:08;;;;;;;;;;;;;;;6.05;61.11;98158.66;5104483;28;20388;-58
2023/04/08 03:19:35;;;;;;;;;;;;;;;5.94;61.00;98160.59;5108908;28;20353;-58
2023/04/08 03:22:03;;;;;;;;;;;;;;;5.92;60.98;98162.75;5111061;28;20415;-59
2023/04/08 03:24:31;;;;;;;;;;;;;;;5.97;60.62;98164.63;5091701;28;19963;-59
2023/04/08 03:27:01;;;;;;;;;;;;;;;5.89;60.83;98162.47;5095346;28;19954;-59
2023/04/08 03:29:31;;;;;;;;;;;;;;;5.82;60.76;98170.03;5110312;28;19934;-62
2023/04/08 03:31:58;;;;;;;;;;;;;;;5.73;60.94;98164.41;5104754;28;19931;-58
2023/04/08 03:34:26;;;;;;;;;;;;;;;5.77;60.83;98160.88;5113309;28;19969;-58
2023/04/08 03:36:54;;;;;;;;;;;;;;;5.74;61.04;98161.41;5103370;28;19931;-59
2023/04/08 03:39:22;;;;;;;;;;;;;;;5.74;60.76;98160.63;5103306;28;19927;-58
2023/04/08 03:41:50;;;;;;;;;;;;;;;5.61;60.86;98169.28;5100422;28;20301;-58
2023/04/08 03:44:18;;;;;;;;;;;;;;;5.67;60.60;98169.00;5113647;28;19930;-59
2023/04/08 03:46:47;;;;;;;;;;;;;;;5.65;60.71;98167.66;5100322;28;19951;-60
2023/04/08 03:49:18;;;;;;;;;;;;;;;5.66;60.53;98163.88;5111890;28;19924;-59
2023/04/08 03:51:46;;;;;;;;;;;;;;;5.62;61.23;98169.00;5114636;28;19924;-61
2023/04/08 03:54:13;;;;;;;;;;;;;;;5.61;60.79;98163.88;5109348;28;19923;-61
2023/04/08 03:56:41;;;;;;;;;;;;;;;5.46;61.35;98164.72;5109597;28;19947;-59
2023/04/08 03:59:09;;;;;;;;;;;;;;;5.49;60.60;98165.00;5109277;28;19928;-59
2023/04/08 04:01:36;;;;;;;;;;;;;;;5.66;59.93;98169.28;5092290;28;19935;-62
2023/04/08 04:04:06;;;;;;;;;;;;;;;5.62;60.53;98174.41;5111410;28;19927;-59
2023/04/08 04:06:34;;;;;;;;;;;;;;;5.54;60.69;98172.25;5110486;28;19928;-60
2023/04/08 04:09:04;;;;;;;;;;;;;;;5.68;59.56;98175.19;5104670;28;19928;-58
2023/04/08 04:11:33;;;;;;;;;;;;;;;5.75;58.99;98179.22;5105121;28;19938;-59
2023/04/08 04:14:01;;;;;;;;;;;;;;;5.74;59.22;98166.81;5089442;28;19924;-60
2023/04/08 04:16:29;;;;;;;;;;;;;;;5.72;58.53;98178.97;5099772;28;19925;-59
2023/04/08 04:18:59;;;;;;;;;;;;;;;5.65;58.70;98181.94;5101834;28;19924;-59
2023/04/08 04:21:28;;;;;;;;;;;;;;;5.91;58.35;98174.63;5098641;28;19969;-60
2023/04/08 04:23:56;;;;;;;;;;;;;;;5.98;58.09;98180.53;5109331;28;19924;-59
2023/04/08 04:26:24;;;;;;;;;;;;;;;5.97;57.83;98178.94;5107321;28;20373;-58
2023/04/08 04:28:54;;;;;;;;;;;;;;;6.09;57.79;98188.59;5106787;28;20296;-59
2023/04/08 04:31:21;;;;;;;;;;;;;;;5.88;58.01;98188.63;5094449;27;19927;-59
2023/04/08 04:33:49;;;;;;;;;;;;;;;5.97;58.05;98192.41;5105620;27;19963;-59
2023/04/08 04:36:18;;;;;;;;;;;;;;;5.91;58.43;98192.66;5109096;28;19924;-59
2023/04/08 04:38:47;;;;;;;;;;;;;;;5.73;58.81;98194.03;5111182;27;19932;-60
2023/04/08 04:41:16;;;;;;;;;;;;;;;5.94;58.08;98192.16;5112975;28;19982;-60
2023/04/08 04:43:45;;;;;;;;;;;;;;;5.97;58.23;98195.13;5109905;28;19963;-59
2023/04/08 04:46:12;;;;;;;;;;;;;;;6.04;57.93;98200.22;5086393;28;20029;-58
2023/04/08 04:48:40;;;;;;;;;;;;;;;6.06;57.79;98205.31;5108337;28;19984;-59
2023/04/08 04:51:08;;;;;;;;;;;;;;;6.08;58.02;98203.19;5107334;28;19924;-59
2023/04/08 04:53:35;;;;;;;;;;;;;;;6.07;57.60;98196.94;5109308;28;19928;-62
2023/04/08 04:56:05;;;;;;;;;;;;;;;6.10;57.23;98207.19;5091385;28;20396;-58
2023/04/08 04:58:32;;;;;;;;;;;;;;;5.98;58.08;98210.22;5096748;28;20151;-59
2023/04/08 05:01:01;;;;;;;;;;;;;;;5.82;58.29;98205.91;5097091;28;20341;-59
2023/04/08 05:03:28;;;;;;;;;;;;;;;6.11;57.40;98214.19;5105858;28;19924;-58
2023/04/08 05:05:56;;;;;;;;;;;;;;;5.90;58.07;98215.31;5113782;28;19937;-59
2023/04/08 05:08:24;;;;;;;;;;;;;;;6.04;57.81;98216.38;5090614;28;19931;-59
2023/04/08 05:10:54;;;;;;;;;;;;;;;5.97;57.44;98222.09;5103441;28;19924;-59
2023/04/08 05:13:24;;;;;;;;;;;;;;;6.07;57.28;98215.81;5102165;28;19930;-60
2023/04/08 05:15:52;;;;;;;;;;;;;;;6.24;56.71;98215.53;5100512;28;20008;-60
2023/04/08 05:18:20;;;;;;;;;;;;;;;6.27;56.76;98223.84;5108435;28;19974;-59
2023/04/08 05:20:47;;;;;;;;;;;;;;;6.24;56.51;98219.03;5109562;28;19994;-59
2023/04/08 05:23:15;;;;;;;;;;;;;;;6.27;56.17;98221.16;5110567;28;19923;-62
2023/04/08 05:25:43;;;;;;;;;;;;;;;6.23;56.19;98228.22;5112551;28;19934;-59
2023/04/08 05:28:11;;;;;;;;;;;;;;;6.12;56.75;98232.00;5109626;28;20212;-59
2023/04/08 05:30:40;;;;;;;;;;;;;;;6.17;56.93;98229.28;5105182;28;19928;-58
2023/04/08 05:33:08;;;;;;;;;;;;;;;6.22;57.02;98231.97;5102074;28;19930;-59
2023/04/08 05:35:36;;;;;;;;;;;;;;;5.98;58.32;98241.75;5093048;28;19924;-59
2023/04/08 05:38:04;;;;;;;;;;;;;;;6.07;58.48;98236.59;5107459;28;19928;-59
2023/04/08 05:40:32;;;;;;;;;;;;;;;6.07;57.96;98242.00;5106199;28;19932;-60
2023/04/08 05:43:00;;;;;;;;;;;;;;;6.00;59.06;98237.69;5093003;28;19934;-62
2023/04/08 05:45:28;;;;;;;;;;;;;;;5.94;59.51;98241.50;5102780;28;19928;-59
2023/04/08 05:47:57;;;;;;;;;;;;;;;6.01;60.15;98246.59;5110376;28;19930;-59
2023/04/08 05:50:25;;;;;;;;;;;;;;;5.92;60.00;98256.34;5111875;28;19930;-66
2023/04/08 05:52:52;;;;;;;;;;;;;;;6.08;60.63;98257.94;5107145;27;19987;-63
2023/04/08 05:55:20;;;;;;;;;;;;;;;6.18;61.11;98249.81;5112118;28;19932;-59
2023/04/08 05:57:49;;;;;;;;;;;;;;;6.23;61.37;98255.19;5093644;28;20392;-60
2023/04/08 06:00:16;;;;;;;;;;;;;;;6.26;61.56;98249.22;5091622;28;19993;-58
2023/04/08 06:02:44;;;;;;;;;;;;;;;6.16;62.80;98260.06;5091973;28;20380;-60
2023/04/08 06:05:14;;;;;;;;;;;;;;;6.08;62.80;98260.63;5105871;28;20334;-58
2023/04/08 06:07:42;;;;;;;;;;;;;;;6.22;63.11;98266.25;5106701;28;19927;-63
2023/04/08 06:10:10;;;;;;;;;;;;;;;6.29;63.53;98269.47;5111233;28;19976;-58
2023/04/08 06:12:38;;;;;;;;;;;;;;;6.23;64.29;98268.69;5110052;28;20005;-59
2023/04/08 06:15:06;;;;;;;;;;;;;;;6.32;65.09;98268.91;5101281;28;19930;-63
2023/04/08 06:17:35;;;;;;;;;;;;;;;6.36;65.27;98269.19;5106319;27;20411;-59
2023/04/08 06:20:04;;;;;;;;;;;;;;;6.45;66.10;98272.94;5107065;28;19930;-58
2023/04/08 06:22:33;;;;;;;;;;;;;;;6.33;65.35;98269.72;5104478;28;19935;-59
2023/04/08 06:25:04;;;;;;;;;;;;;;;6.21;65.95;98273.53;5101944;28;19927;-58
2023/04/08 06:27:31;;;;;;;;;;;;;;;6.10;67.26;98271.94;5109618;28;20018;-58
2023/04/08 06:29:59;;;;;;;;;;;;;;;6.11;67.84;98272.75;5092597;28;20031;-60
2023/04/08 06:32:27;;;;;;;;;;;;;;;6.04;67.97;98278.44;5104922;28;19924;-59
2023/04/08 06:34:55;;;;;;;;;;;;;;;6.06;68.08;98273.56;5110071;28;19932;-58
2023/04/08 06:37:23;;;;;;;;;;;;;;;6.01;69.09;98271.66;5111951;28;19955;-63
2023/04/08 06:39:52;;;;;;;;;;;;;;;5.90;68.82;98286.22;5110863;28;20051;-63
2023/04/08 06:42:20;;;;;;;;;;;;;;;5.78;69.75;98289.22;5109724;28;19988;-63
2023/04/08 06:45:02;;;;;;;;;;;;;;;5.66;69.64;98294.06;5092160;28;20296;-64
2023/04/08 06:47:30;;;;;;;;;;;;;;;5.62;70.10;98303.78;5108261;28;19976;-64
2023/04/08 06:49:58;;;;;;;;;;;;;;;5.76;70.35;98294.06;5110514;28;19924;-63
2023/04/08 06:52:26;;;;;;;;;;;;;;;5.91;69.55;98293.28;5107379;28;19924;-64
2023/04/08 06:54:55;;;;;;;;;;;;;;;5.79;70.99;98298.91;5106875;28;19927;-63
2023/04/08 06:57:23;;;;;;;;;;;;;;;5.94;71.58;98295.44;5098018;28;20281;-64
2023/04/08 06:59:52;;;;;;;;;;;;;;;6.10;70.50;98293.50;5078948;28;20409;-64
2023/04/08 07:02:21;;;;;;;;;;;;;;;6.00;71.14;98302.44;5096650;28;19953;-64
2023/04/08 07:04:49;;;;;;;;;;;;;;;6.03;69.91;98304.59;5093899;28;20373;-63
2023/04/08 07:07:17;;;;;;;;;;;;;;;5.92;70.58;98307.56;5095959;28;19928;-63
2023/04/08 07:09:45;;;;;;;;;;;;;;;5.95;70.60;98320.50;5110955;28;20348;-64
2023/04/08 07:12:14;;;;;;;;;;;;;;;5.97;71.14;98326.44;5100194;28;19932;-64
2023/04/08 07:14:42;;;;;;;;;;;;;;;6.01;71.61;98311.31;5103559;28;19924;-63
2023/04/08 07:17:10;;;;;;;;;;;;;;;6.00;71.16;98320.50;5105010;28;19924;-63
2023/04/08 07:19:38;;;;;;;;;;;;;;;5.97;71.09;98316.47;5096753;28;19924;-62
2023/04/08 07:22:05;;;;;;;;;;;;;;;5.93;71.78;98323.47;5103875;28;19932;-63
2023/04/08 07:24:34;;;;;;;;;;;;;;;6.06;72.63;98330.19;5102621;28;19931;-63
2023/04/08 07:27:01;;;;;;;;;;;;;;;6.10;71.22;98330.47;5102123;28;20688;-64
2023/04/08 07:29:35;;;;;;;;;;;;;;;6.08;71.49;98341.53;5103779;28;19931;-64
2023/04/08 07:32:05;;;;;;;;;;;;;;;5.94;71.22;98335.88;5096642;28;19924;-63
2023/04/08 07:34:34;;;;;;;;;;;;;;;6.08;71.57;98344.25;5100692;28;19989;-63
2023/04/08 07:37:02;;;;;;;;;;;;;;;6.10;71.35;98347.47;5100232;28;20311;-63
2023/04/08 07:39:30;;;;;;;;;;;;;;;6.06;72.10;98343.69;5106872;28;19930;-62
2023/04/08 07:41:58;;;;;;;;;;;;;;;6.09;72.30;98343.16;5106663;28;19947;-63
2023/04/08 07:44:26;;;;;;;;;;;;;;;5.89;71.79;98345.81;5103860;28;20883;-63
2023/04/08 07:46:55;;;;;;;;;;;;;;;5.99;71.72;98348.56;5105313;28;19971;-63
2023/04/08 07:49:23;;;;;;;;;;;;;;;5.94;72.14;98343.16;5103874;28;19931;-64
2023/04/08 07:51:50;;;;;;;;;;;;;;;5.96;72.06;98351.78;5106376;28;19947;-62
2023/04/08 07:54:18;;;;;;;;;;;;;;;6.06;72.15;98351.78;5091947;28;19924;-64
2023/04/08 07:56:46;;;;;;;;;;;;;;;6.10;73.12;98352.88;5097089;28;19924;-65
2023/04/08 07:59:14;;;;;;;;;;;;;;;6.11;73.04;98362.56;5082178;28;19939;-61
2023/04/08 08:01:42;;;;;;;;;;;;;;;5.98;72.68;98365.81;5099038;28;20392;-64
2023/04/08 08:04:11;;;;;;;;;;;;;;;5.94;73.31;98362.84;5100819;28;19972;-64
2023/04/08 08:06:39;;;;;;;;;;;;;;;5.95;72.54;98363.66;5103817;28;19928;-62
2023/04/08 08:09:06;;;;;;;;;;;;;;;6.05;72.89;98366.34;5100539;28;19924;-62
2023/04/08 08:11:34;;;;;;;;;;;;;;;5.86;73.08;98365.22;5105158;28;19931;-62
2023/04/08 08:14:03;;;;;;;;;;;;;;;5.94;72.46;98370.13;5102892;28;19932;-62
2023/04/08 08:16:32;;;;;;;;;;;;;;;5.96;73.29;98376.06;5084098;28;19980;-62
2023/04/08 08:19:00;;;;;;;;;;;;;;;6.03;72.78;98374.72;5110007;28;19977;-62
2023/04/08 08:21:29;;;;;;;;;;;;;;;6.14;71.89;98370.13;5108801;28;19931;-62
2023/04/08 08:23:58;;;;;;;;;;;;;;;5.96;72.53;98373.34;5094615;27;19925;-62
2023/04/08 08:26:26;;;;;;;;;;;;;;;6.03;71.98;98373.91;5075964;28;19928;-63
2023/04/08 08:28:54;;;;;;;;;;;;;;;6.07;72.06;98374.16;5085370;28;19954;-63
2023/04/08 08:31:21;;;;;;;;;;;;;;;5.96;72.86;98374.16;5073776;28;19928;-63
2023/04/08 08:33:49;;;;;;;;;;;;;;;6.05;71.93;98379.84;5082111;28;19976;-62
2023/04/08 08:36:17;;;;;;;;;;;;;;;5.89;72.85;98383.59;5080476;28;19932;-62
2023/04/08 08:38:47;;;;;;;;;;;;;;;6.06;71.72;98384.16;5082097;28;19924;-63
2023/04/08 08:41:14;;;;;;;;;;;;;;;6.09;72.03;98394.41;5084796;28;19931;-63
2023/04/08 08:43:43;;;;;;;;;;;;;;;6.18;71.92;98389.25;5088107;28;19931;-67
2023/04/08 08:46:11;;;;;;;;;;;;;;;6.09;71.94;98388.22;5080175;28;20226;-67
2023/04/08 08:48:41;;;;;;;;;;;;;;;6.00;72.39;98385.22;5075294;28;19928;-66
2023/04/08 08:51:09;;;;;;;;;;;;;;;6.08;72.06;98397.38;5083163;28;20342;-66
2023/04/08 08:53:37;;;;;;;;;;;;;;;6.21;72.29;98386.03;5074187;28;19932;-67
2023/04/08 08:56:06;;;;;;;;;;;;;;;6.32;71.92;98387.63;5083884;28;19931;-67
2023/04/08 08:58:44;;;;;;;;;;;;;;;6.24;71.35;98397.09;5081593;28;19925;-73
2023/04/08 09:01:32;;;;;;;;;;;;;;;6.20;71.37;98400.59;5064656;28;19932;-69
2023/04/08 09:04:09;;;;;;;;;;;;;;;6.22;71.65;98407.34;5084936;28;20266;-66
2023/04/08 09:06:37;;;;;;;;;;;;;;;6.19;72.18;98407.91;5074777;28;19929;-68
2023/04/08 09:09:09;;;;;;;;;;;;;;;6.21;71.45;98407.63;5084446;28;20282;-67
2023/04/08 09:11:39;;;;;;;;;;;;;;;6.23;71.68;98410.84;5076780;28;19928;-66
2023/04/08 09:14:17;;;;;;;;;;;;;;;6.29;72.08;98405.19;5087987;28;19928;-65
2023/04/08 09:16:45;;;;;;;;;;;;;;;6.27;71.49;98399.25;5085028;28;19928;-65
2023/04/08 09:19:13;;;;;;;;;;;;;;;6.24;71.73;98410.59;5090517;28;19924;-67
2023/04/08 09:21:41;;;;;;;;;;;;;;;6.31;70.94;98407.63;5075646;28;19931;-68
2023/04/08 09:24:09;;;;;;;;;;;;;;;6.30;71.66;98412.22;5098310;28;20296;-67
2023/04/08 09:26:40;;;;;;;;;;;;;;;6.26;72.49;98415.72;5105939;28;19934;-67
2023/04/08 09:29:08;;;;;;;;;;;;;;;6.20;71.51;98412.22;5109302;28;20369;-67
2023/04/08 09:31:56;;;;;;;;;;;;;;;6.27;72.17;98417.31;5082965;28;19931;-67
2023/04/08 09:34:24;;;;;;;;;;;;;;;6.23;72.54;98418.94;5087951;28;19977;-67
2023/04/08 09:36:52;;;;;;;;;;;;;;;6.12;72.72;98423.53;5107834;28;19942;-65
2023/04/08 09:39:20;;;;;;;;;;;;;;;6.10;73.54;98417.59;5111074;28;19928;-67
2023/04/08 09:41:50;;;;;;;;;;;;;;;6.12;73.45;98420.81;5107670;28;19928;-67
2023/04/08 09:44:20;;;;;;;;;;;;;;;6.10;73.04;98420.28;5111802;28;19969;-67
2023/04/08 09:46:52;;;;;;;;;;;;;;;6.29;73.21;98424.09;5107086;28;19934;-67
2023/04/08 09:49:23;;;;;;;;;;;;;;;6.52;72.72;98419.19;5094341;28;19938;-67
2023/04/08 09:51:53;;;;;;;;;;;;;;;6.52;73.38;98425.41;5111113;28;20262;-67
2023/04/08 09:54:21;;;;;;;;;;;;;;;6.47;72.41;98422.72;5108557;28;19927;-67
2023/04/08 09:56:51;;;;;;;;;;;;;;;6.60;72.37;98418.63;5091615;28;19942;-69
2023/04/08 09:59:20;;;;;;;;;;;;;;;6.54;71.80;98414.31;5090527;28;19935;-69
2023/04/08 10:01:50;;;;;;;;;;;;;;;6.62;72.06;98419.19;5104773;28;19928;-67
2023/04/08 10:04:19;;;;;;;;;;;;;;;6.73;71.89;98419.97;5106073;28;19924;-67
2023/04/08 10:06:50;;;;;;;;;;;;;;;6.84;72.10;98418.88;5108427;28;19928;-69
2023/04/08 10:09:18;;;;;;;;;;;;;;;6.94;71.26;98420.72;5108754;28;19955;-69
2023/04/08 10:11:46;;;;;;;;;;;;;;;6.96;70.97;98413.16;5109118;28;19947;-66
2023/04/08 10:14:15;;;;;;;;;;;;;;;7.02;70.75;98420.16;5107618;28;19931;-69
2023/04/08 10:16:43;;;;;;;;;;;;;;;7.14;69.73;98428.78;5099961;28;20082;-68
2023/04/08 10:19:36;;;;;;;;;;;;;;;7.14;70.17;98423.38;5107729;28;19951;-68
2023/04/08 10:22:04;;;;;;;;;;;;;;;7.00;70.61;98425.03;5103701;28;19935;-67
2023/04/08 10:24:33;;;;;;;;;;;;;;;7.05;70.44;98428.53;5072346;28;19931;-67
2023/04/08 10:27:03;;;;;;;;;;;;;;;7.11;69.45;98423.09;5083739;28;19925;-67
2023/04/08 10:29:35;;;;;;;;;;;;;;;7.13;70.26;98424.44;5067707;28;19924;-67
2023/04/08 10:32:03;;;;;;;;;;;;;;;7.00;70.10;98422.31;5080035;28;19924;-68
2023/04/08 10:34:31;;;;;;;;;;;;;;;7.11;70.37;98415.81;5085731;28;19924;-68
2023/04/08 10:37:00;;;;;;;;;;;;;;;7.07;69.90;98420.13;5083688;28;20296;-69
2023/04/08 10:39:28;;;;;;;;;;;;;;;7.01;69.55;98416.63;5087033;28;19992;-68
2023/04/08 10:41:56;;;;;;;;;;;;;;;7.04;69.57;98413.41;5081676;28;19925;-67
2023/04/08 10:44:25;;;;;;;;;;;;;;;7.25;70.25;98419.53;5067937;28;20428;-69
2023/04/08 10:46:54;;;;;;;;;;;;;;;7.30;69.59;98419.50;5081975;28;19978;-68
2023/04/08 10:49:22;;;;;;;;;;;;;;;7.27;69.50;98419.25;5087750;28;19935;-66
2023/04/08 10:51:51;;;;;;;;;;;;;;;7.31;69.49;98423.81;5081744;28;19928;-68
2023/04/08 10:54:19;;;;;;;;;;;;;;;7.30;69.16;98414.09;5057906;28;19924;-68
2023/04/08 10:56:48;;;;;;;;;;;;;;;7.30;70.17;98418.72;5080281;28;19932;-67
2023/04/08 10:59:16;;;;;;;;;;;;;;;7.27;70.23;98419.25;5084636;28;19924;-67
2023/04/08 11:01:45;;;;;;;;;;;;;;;7.35;70.57;98416.78;5060165;28;19931;-67
2023/04/08 11:04:15;;;;;;;;;;;;;;;7.34;70.35;98409.75;5066992;28;19924;-67
2023/04/08 11:06:43;;;;;;;;;;;;;;;7.39;70.37;98416.22;5084033;28;19924;-69
2023/04/08 11:09:11;;;;;;;;;;;;;;;7.53;69.84;98411.81;5067103;28;20407;-66
2023/04/08 11:11:41;;;;;;;;;;;;;;;7.59;69.89;98416.91;5073256;28;20535;-67
2023/04/08 11:14:09;;;;;;;;;;;;;;;7.83;69.35;98422.47;5079308;28;20404;-67
2023/04/08 11:16:37;;;;;;;;;;;;;;;7.91;68.49;98420.25;5077396;28;20352;-66
2023/04/08 11:19:05;;;;;;;;;;;;;;;7.98;68.56;98423.44;5077953;28;20004;-68
2023/04/08 11:21:36;;;;;;;;;;;;;;;8.00;67.93;98416.66;5084090;28;19932;-68
2023/04/08 11:24:08;;;;;;;;;;;;;;;8.18;67.01;98422.47;5099609;28;19930;-66
2023/04/08 11:26:36;;;;;;;;;;;;;;;8.12;66.80;98414.41;5105303;28;19924;-67
2023/04/08 11:29:05;;;;;;;;;;;;;;;7.96;67.63;98414.81;5104497;28;20014;-67
2023/04/08 11:31:33;;;;;;;;;;;;;;;7.81;68.19;98415.69;5081337;28;19924;-67
2023/04/08 11:34:01;;;;;;;;;;;;;;;7.69;67.98;98418.75;5102744;28;19947;-67
2023/04/08 11:36:29;;;;;;;;;;;;;;;7.68;67.97;98419.84;5105541;28;19931;-68
2023/04/08 11:38:58;;;;;;;;;;;;;;;7.63;68.47;98410.97;5103374;28;19947;-67
2023/04/08 11:41:35;;;;;;;;;;;;;;;7.63;68.59;98417.19;5104928;28;19924;-67
2023/04/08 11:44:04;;;;;;;;;;;;;;;7.57;69.03;98418.28;5107323;28;19956;-67
2023/04/08 11:46:32;;;;;;;;;;;;;;;7.41;69.28;98419.47;5092849;28;19963;-65
2023/04/08 11:49:00;;;;;;;;;;;;;;;7.37;69.73;98410.28;5096728;28;19932;-67
2023/04/08 11:51:28;;;;;;;;;;;;;;;7.37;69.79;98418.41;5106209;27;20316;-67
2023/04/08 11:53:55;;;;;;;;;;;;;;;7.48;69.64;98422.66;5106698;27;19931;-67
2023/04/08 11:56:25;;;;;;;;;;;;;;;7.57;69.33;98416.41;5113154;27;20394;-67
2023/04/08 11:58:53;;;;;;;;;;;;;;;7.58;69.35;98415.31;5088413;28;19924;-69
2023/04/08 12:01:21;;;;;;;;;;;;;;;7.84;69.03;98415.16;5103817;28;19924;-69
2023/04/08 12:03:55;;;;;;;;;;;;;;;8.11;67.97;98411.97;5108745;28;20323;-68
2023/04/08 12:06:26;;;;;;;;;;;;;;;8.26;67.81;98414.56;5112332;28;20373;-72
2023/04/08 12:08:54;;;;;;;;;;;;;;;8.31;67.58;98417.22;5114557;28;20292;-69
2023/04/08 12:11:22;;;;;;;;;;;;;;;8.29;67.06;98418.59;5117801;28;19928;-71
2023/04/08 12:13:51;;;;;;;;;;;;;;;8.33;67.34;98409.63;5110547;28;19927;-69
2023/04/08 12:16:20;;;;;;;;;;;;;;;8.36;67.24;98411.81;5098670;28;19931;-69
2023/04/08 12:18:49;;;;;;;;;;;;;;;8.42;67.26;98412.56;5097310;28;19931;-70
2023/04/08 12:21:17;;;;;;;;;;;;;;;8.25;67.37;98412.94;5112800;28;19928;-71
2023/04/08 12:23:45;;;;;;;;;;;;;;;8.23;67.63;98406.19;5112924;28;19923;-63
2023/04/08 12:26:17;;;;;;;;;;;;;;;8.26;67.54;98419.97;5106378;28;19941;-67
2023/04/08 12:28:44;;;;;;;;;;;;;;;8.18;67.82;98407.03;5107814;28;19946;-67
2023/04/08 12:31:14;;;;;;;;;;;;;;;8.19;68.04;98414.06;5098950;28;19980;-68
2023/04/08 12:33:41;;;;;;;;;;;;;;;8.18;67.81;98412.44;5111637;28;20364;-66
2023/04/08 12:36:09;;;;;;;;;;;;;;;8.21;67.76;98416.50;5106688;28;19981;-66
2023/04/08 12:38:40;;;;;;;;;;;;;;;8.14;67.22;98414.91;5107987;28;19940;-66
2023/04/08 12:41:07;;;;;;;;;;;;;;;8.08;67.23;98417.94;5108233;28;20284;-66
2023/04/08 12:43:35;;;;;;;;;;;;;;;8.22;67.21;98421.63;5107448;28;19928;-66
2023/04/08 12:46:03;;;;;;;;;;;;;;;8.38;67.08;98422.34;5100998;28;19923;-66
2023/04/08 12:48:33;;;;;;;;;;;;;;;8.54;66.82;98425.72;5084851;28;19928;-65
2023/04/08 12:51:00;;;;;;;;;;;;;;;8.54;66.21;98423.81;5104252;28;19927;-67
2023/04/08 12:53:29;;;;;;;;;;;;;;;8.67;66.10;98422.31;5107267;28;19969;-66
2023/04/08 12:55:57;;;;;;;;;;;;;;;8.71;66.09;98423.38;5111382;28;20335;-67
2023/04/08 12:58:25;;;;;;;;;;;;;;;8.56;66.29;98415.41;5113738;28;19924;-66
2023/04/08 13:00:52;;;;;;;;;;;;;;;8.56;66.14;98420.81;5087716;28;20373;-64
2023/04/08 13:03:20;;;;;;;;;;;;;;;8.58;66.38;98422.16;5107368;28;19967;-66
2023/04/08 13:05:50;;;;;;;;;;;;;;;8.53;65.80;98418.69;5103098;28;19931;-67